Estherville, IA

2:47 AM CST on February 12, 2016 (GMT -0600)
Estherville Municipal | | Change Station
CLOSE
Current Station
Airport
Location: Estherville,
Elevation: 1316 ft
Nearby Weather Stations

Elev 1316 ft 43.40 °N, 94.75 °W | Updated 55 minutes ago

Light Snow
Light Snow Mist
13 °F
Feels Like 1 °F
N
9
Wind Variable Wind from WNW

Today
High -- | Low -- °F
--% Chance of Precip.
Yesterday
High -- | Low -- °F
Precip. -- in
Pressure 30.29 in
Visibility 6.0 miles
Clouds Overcast 1500 ft
Windchill 1 °F
Dew Point 10 °F
Humidity 88%
Rainfall 0.00 in
Snow Depth Not available.
7:21 AM 5:45 PM
Waxing Crescent, 18% visible
METAR KEST 120752Z AUTO 30008KT 6SM -SN BR OVC015 M11/M12 A3021 RMK AO2 SNB52 SLP256 P0000 T11061122
Pressure 30.29 in
Visibility 6.0 miles
Clouds Overcast 1500 ft
Windchill 1 °F
Dew Point 10 °F
Humidity 88%
Rainfall 0.00 in
Snow Depth Not available.
7:21 AM 5:45 PM
Waxing Crescent, 18% visible
METAR KEST 120752Z AUTO 30008KT 6SM -SN BR OVC015 M11/M12 A3021 RMK AO2 SNB52 SLP256 P0000 T11061122

10-Day Weather Forecast

Almanac

Astronomy

Feb. 12, 2016 Rise Set
Actual Time
Civil Twilight
Nautical Twilight
Astronomical Twilight
Moon
Length of Visible Light
Length of Day
Tomorrow will be .
, % of the Moon is Illuminated

Today's Extremes

State Highs State Lows

Community

WunderPhotos

Upload Photos

1,892,284 photos uploaded!

WunderBlog® & News

Nearby

Air Quality

  Air Quality AQ Index Pollutant
Not available.

Snow Depth

Station Depth Elevation

Earthquake Activity

City Distance Mag. Time & Date
Minimum magnitude displayed is 2.5.

Coastal Water Temperatures

Place Temperature

Stations

Nearby Weather Stations

Station Location Temp. Windchill Dew Point Humidity Wind Precip. Elev Updated Type
                   

Watches & Warnings

There are currently no watches in effect.